Hauptseite
METAR-TAF:

METAR-TAF

Flughäfen :

Flughafen Oslo-Gardermoen

Oslo, Norwegen

Breite: 60-12N, Länge: 011-05E, Höhe: 208 m

Beobachtung

Neuester Wetterbericht von vor 22 Minuten, um 20:50 UTC
Wind 3 kt aus unterschiedlichen Richtungen
Temperatur 16°C
Luftfeuchtigkeit 55%
Luftdruck 1012 hPa
Sichtweite 10 km oder mehr
keine Wolken unter 1500 m und keine Kumulonimbus oder Gewitterwolken

METAR: ENGM 232050Z VRB03KT CAVOK 16/07 Q1012 NOSIG

Zeit: 23:12 (21:12 UTC)

Prognose

Gültige Prognose vom 23 um 18 UTC bis 24 um 18 UTC
Wind 10 kt aus Südwest
Sichtweite 10 km oder mehr
keine Wolken unter 1500 m und keine Kumulonimbus oder Gewitterwolken
Übergehend zu
vom 23 um 18 UTC bis 23 um 20 UTC
Wind 5 kt aus Nord/Nordost

TAF: ENGM 2318/2418 22010KT CAVOK BECMG 2318/2320 02005KT

Wetterbeobachtungen und Prognosen von mehr als 4000 Flughäfen (METAR und TAF Bericht).

Die verfügbaren Stationen werden durch gelbe und rote Markierungen auf der Karte dargestellt.

Führen Sie die Maus auf sie, um den Namen der Station zu sehen.

Darauf klicken, um die Beobachtung von Wetterbeobachtungen und Prognosen zu sehen.

Um die Karte zu ändern : klicken Sie auf den grünen Tasten mit einem schwarzen Kreuz Zum Vergrößern, auf den grünen Button mit einem Gedankenstrich zu verkleinern, oder auf die grünen Pfeile für benachbarte Karten.


METAR-TAF: